Time;durP1;ratioP1;P1;durP2;ratioP2;P2;SDS_P1;SDS_P2;PMS_P1;PMS_P2;Temp;Humidity;BMP_temperature;BMP_pressure;BME280_temperature;BME280_humidity;BME280_pressure;Samples;Min_cycle;Max_cycle;Signal;HPM_P1;HPM_P2
2021/12/16 00:02:03;;;;;;;31.87;12.83;;;5.50;95.40;;;;;;5007083;28;20574;-71
2021/12/16 00:09:29;;;;;;;27.80;13.67;;;5.50;95.50;;;;;;5012708;28;20213;-74
2021/12/16 00:31:20;;;;;;;26.17;11.53;;;5.80;95.20;;;;;;5048173;28;20545;-71
2021/12/16 00:33:58;;;;;;;29.00;12.37;;;5.80;95.10;;;;;;5048024;28;20427;-72
2021/12/16 00:36:24;;;;;;;26.50;11.93;;;5.80;95.00;;;;;;5045107;28;20469;-71
2021/12/16 00:38:49;;;;;;;26.50;12.60;;;5.70;94.90;;;;;;5047686;28;20458;-73
2021/12/16 00:41:15;;;;;;;28.80;12.60;;;5.60;94.90;;;;;;5048057;28;20195;-74
2021/12/16 00:43:49;;;;;;;27.40;12.97;;;5.60;95.00;;;;;;5049175;28;20200;-72
2021/12/16 00:46:32;;;;;;;26.30;11.87;;;5.60;95.10;;;;;;5047589;28;20470;-71
2021/12/16 00:49:21;;;;;;;27.80;11.70;;;5.50;95.20;;;;;;5048859;28;20437;-71
2021/12/16 00:54:29;;;;;;;30.10;12.73;;;5.50;95.50;;;;;;5053184;28;20417;-74
2021/12/16 00:57:01;;;;;;;34.47;13.10;;;5.30;95.50;;;;;;5052373;28;20860;-70
2021/12/16 00:59:32;;;;;;;29.23;13.70;;;5.30;95.80;;;;;;5053094;28;20537;-73
2021/12/16 01:35:22;;;;;;;26.00;11.90;;;5.30;96.30;;;;;;5052687;28;20430;-74
2021/12/16 01:51:25;;;;;;;32.00;12.93;;;5.40;95.50;;;;;;5047720;28;20453;-72
2021/12/16 01:54:43;;;;;;;30.70;13.33;;;5.50;95.40;;;;;;5050959;28;20433;-72
2021/12/16 01:57:25;;;;;;;29.97;12.87;;;5.40;95.20;;;;;;5051592;28;20427;-72
2021/12/16 02:00:01;;;;;;;33.37;13.10;;;5.50;95.00;;;;;;5052064;28;21048;-73
2021/12/16 02:02:51;;;;;;;32.53;13.50;;;5.40;94.50;;;;;;5049228;28;20513;-72
2021/12/16 02:05:39;;;;;;;29.60;12.53;;;5.30;94.70;;;;;;5053964;28;20423;-71
2021/12/16 02:08:33;;;;;;;30.93;13.67;;;5.30;94.80;;;;;;5050840;28;20470;-71
2021/12/16 02:31:07;;;;;;;27.10;11.70;;;5.10;95.40;;;;;;5048964;28;20463;-73
2021/12/16 02:33:19;;;;;;;32.83;13.50;;;5.10;95.50;;;;;;5042550;28;20820;-72
2021/12/16 02:36:00;;;;;;;33.43;14.27;;;5.20;95.50;;;;;;5048616;28;20502;-71
2021/12/16 02:38:30;;;;;;;30.57;13.10;;;5.20;95.50;;;;;;5049123;28;20423;-72
2021/12/16 02:40:56;;;;;;;29.07;12.17;;;5.20;95.50;;;;;;5049330;28;20457;-71
2021/12/16 02:43:51;;;;;;;31.43;14.73;;;5.30;95.30;;;;;;5048623;28;20454;-72
2021/12/16 02:48:40;;;;;;;33.30;14.20;;;5.30;95.40;;;;;;5048984;28;20425;-71
2021/12/16 02:51:12;;;;;;;30.13;12.40;;;5.30;95.20;;;;;;5050630;28;20502;-72
2021/12/16 02:53:45;;;;;;;28.00;12.43;;;5.40;94.90;;;;;;5051648;28;20419;-71
2021/12/16 02:56:11;;;;;;;26.57;12.10;;;5.40;94.80;;;;;;5050833;28;20419;-72
2021/12/16 02:58:41;;;;;;;34.07;13.07;;;5.40;94.60;;;;;;5051649;28;20952;-72
2021/12/16 03:01:15;;;;;;;24.37;10.83;;;5.50;94.50;;;;;;5052508;28;20929;-71
2021/12/16 03:03:41;;;;;;;28.33;11.90;;;5.40;94.30;;;;;;5052664;28;20430;-72
2021/12/16 03:06:09;;;;;;;26.20;12.13;;;5.40;94.30;;;;;;5053187;28;20469;-73
2021/12/16 03:08:36;;;;;;;27.80;11.87;;;5.40;94.20;;;;;;5051754;28;20463;-70
2021/12/16 03:16:28;;;;;;;25.03;11.77;;;5.30;94.40;;;;;;5053983;28;20480;-72
2021/12/16 03:21:41;;;;;;;27.77;11.80;;;5.30;94.40;;;;;;5049824;28;20425;-72
2021/12/16 03:37:18;;;;;;;31.70;12.47;;;5.40;94.10;;;;;;5049702;28;20429;-72
2021/12/16 03:40:08;;;;;;;28.00;11.70;;;5.40;94.00;;;;;;5049975;28;20951;-70
2021/12/16 03:42:39;;;;;;;32.30;13.20;;;5.50;94.00;;;;;;5048059;28;20493;-72
2021/12/16 03:48:06;;;;;;;27.33;13.07;;;5.50;93.50;;;;;;5049856;28;20407;-73
2021/12/16 03:50:31;;;;;;;30.03;12.60;;;5.40;93.50;;;;;;5049620;28;20458;-72
2021/12/16 03:52:57;;;;;;;31.67;12.67;;;5.50;93.70;;;;;;5048042;28;20430;-75
2021/12/16 03:55:24;;;;;;;31.30;13.13;;;5.40;93.70;;;;;;5049097;28;20860;-73
2021/12/16 03:57:49;;;;;;;25.30;12.60;;;5.40;93.80;;;;;;5049770;28;20423;-73
2021/12/16 04:00:23;;;;;;;28.10;12.47;;;5.40;93.90;;;;;;5049741;28;20572;-74
2021/12/16 04:02:49;;;;;;;29.87;12.53;;;5.40;94.10;;;;;;5047526;28;20442;-71
2021/12/16 04:05:16;;;;;;;30.53;13.57;;;5.50;94.20;;;;;;5048972;28;20480;-73
2021/12/16 04:07:43;;;;;;;33.00;14.33;;;5.60;94.20;;;;;;5049569;28;20211;-71
2021/12/16 04:10:17;;;;;;;32.50;13.03;;;5.60;93.90;;;;;;5049574;28;20439;-71
2021/12/16 04:12:43;;;;;;;26.03;12.37;;;5.60;93.80;;;;;;5049372;28;20430;-71
2021/12/16 04:15:10;;;;;;;29.20;12.40;;;5.60;93.60;;;;;;5048775;28;20426;-74
2021/12/16 04:17:37;;;;;;;32.83;14.63;;;5.60;93.60;;;;;;5049432;28;20419;-71
2021/12/16 04:20:08;;;;;;;28.63;13.00;;;5.50;93.70;;;;;;5049438;28;20435;-72
2021/12/16 04:22:42;;;;;;;35.00;13.43;;;5.50;93.80;;;;;;5049412;28;20422;-71
2021/12/16 04:25:19;;;;;;;32.60;14.33;;;5.40;93.80;;;;;;5049854;28;20426;-72
2021/12/16 04:27:47;;;;;;;32.77;14.27;;;5.40;94.00;;;;;;5053626;28;20423;-72
2021/12/16 04:30:16;;;;;;;28.73;14.17;;;5.40;94.30;;;;;;5052487;28;20545;-71
2021/12/16 04:32:42;;;;;;;29.80;12.63;;;5.40;94.40;;;;;;5053493;28;20452;-72
2021/12/16 04:35:08;;;;;;;35.07;13.37;;;5.40;94.30;;;;;;5053089;28;20576;-72
2021/12/16 04:37:34;;;;;;;32.10;13.43;;;5.50;94.40;;;;;;5052307;28;20430;-72
2021/12/16 04:40:02;;;;;;;33.17;13.57;;;5.50;94.30;;;;;;5054232;28;20450;-73
2021/12/16 04:42:28;;;;;;;29.77;13.20;;;5.50;94.40;;;;;;5054259;28;20450;-73
2021/12/16 04:44:54;;;;;;;28.10;12.00;;;5.50;94.50;;;;;;5049040;28;20445;-73
2021/12/16 04:47:20;;;;;;;35.93;14.80;;;5.60;94.40;;;;;;5053053;28;20467;-73
2021/12/16 04:49:46;;;;;;;32.33;14.17;;;5.60;94.40;;;;;;5054860;28;20200;-72
2021/12/16 04:52:16;;;;;;;32.97;13.23;;;5.70;94.30;;;;;;5055470;28;20177;-71
2021/12/16 04:54:44;;;;;;;31.93;13.67;;;5.70;94.20;;;;;;5054252;28;20438;-73
2021/12/16 04:57:10;;;;;;;36.00;15.57;;;5.80;93.70;;;;;;5056067;28;20480;-72
2021/12/16 04:59:37;;;;;;;37.37;14.70;;;5.70;93.60;;;;;;5054537;28;21013;-71
2021/12/16 05:02:09;;;;;;;34.97;15.30;;;5.60;93.60;;;;;;5053913;28;20185;-71
2021/12/16 05:04:36;;;;;;;39.93;15.93;;;5.50;93.70;;;;;;5053212;28;20449;-72
2021/12/16 05:07:03;;;;;;;40.13;16.63;;;5.50;93.90;;;;;;5052146;28;20467;-73
2021/12/16 05:12:19;;;;;;;36.37;14.53;;;5.50;94.10;;;;;;5052490;28;21028;-71
2021/12/16 05:14:46;;;;;;;35.70;14.30;;;5.40;94.20;;;;;;5052683;28;20458;-74
2021/12/16 05:17:25;;;;;;;37.57;15.53;;;5.40;94.30;;;;;;5052400;28;20463;-73
2021/12/16 05:19:52;;;;;;;37.60;17.23;;;5.40;94.30;;;;;;5051587;28;20860;-72
2021/12/16 05:25:09;;;;;;;42.50;17.23;;;5.40;94.50;;;;;;5051991;28;20418;-72
2021/12/16 05:27:35;;;;;;;45.27;16.70;;;5.50;94.50;;;;;;5052588;28;20439;-70
2021/12/16 05:30:00;;;;;;;30.77;13.43;;;5.50;94.50;;;;;;5053048;28;20760;-71
2021/12/16 05:32:26;;;;;;;39.87;14.80;;;5.60;94.50;;;;;;5052866;28;20192;-73
2021/12/16 05:34:52;;;;;;;39.20;15.60;;;5.50;94.20;;;;;;5052440;28;20242;-72
2021/12/16 05:37:18;;;;;;;36.63;13.77;;;5.50;94.10;;;;;;5052797;28;20197;-73
2021/12/16 05:39:44;;;;;;;39.40;15.40;;;5.60;94.10;;;;;;5052221;28;20209;-71
2021/12/16 05:42:10;;;;;;;37.90;13.90;;;5.60;94.00;;;;;;5052142;28;20655;-72
2021/12/16 05:44:35;;;;;;;42.97;15.83;;;5.60;94.00;;;;;;5044928;28;20450;-72
2021/12/16 05:47:01;;;;;;;36.50;13.63;;;5.50;93.80;;;;;;5051500;28;20208;-71
2021/12/16 05:49:27;;;;;;;34.90;13.97;;;5.50;93.80;;;;;;5051132;28;20216;-70
2021/12/16 05:51:53;;;;;;;41.53;15.80;;;5.60;94.00;;;;;;5043739;28;20198;-72
2021/12/16 05:54:21;;;;;;;38.03;14.00;;;5.60;93.90;;;;;;5052768;28;20216;-71
2021/12/16 05:56:48;;;;;;;46.53;15.93;;;5.50;93.80;;;;;;5051675;28;20643;-71
2021/12/16 05:59:17;;;;;;;42.77;15.47;;;5.50;93.80;;;;;;5051953;28;20455;-72
2021/12/16 06:01:46;;;;;;;34.63;14.57;;;5.40;93.90;;;;;;5053695;28;20803;-73
2021/12/16 06:04:12;;;;;;;35.20;14.33;;;5.50;94.10;;;;;;5052366;28;20450;-71
2021/12/16 06:06:38;;;;;;;37.50;14.00;;;5.60;94.00;;;;;;5053419;28;20474;-71
2021/12/16 06:09:07;;;;;;;41.17;15.53;;;5.60;94.00;;;;;;5055145;28;20839;-72
2021/12/16 06:11:35;;;;;;;39.33;14.47;;;5.60;94.00;;;;;;5051755;28;20429;-72
2021/12/16 06:27:48;;;;;;;33.80;13.40;;;5.60;93.70;;;;;;5052335;28;21021;-72
2021/12/16 06:30:19;;;;;;;32.43;12.70;;;5.60;93.80;;;;;;5047324;28;20427;-73
2021/12/16 06:32:45;;;;;;;37.37;14.43;;;5.60;93.70;;;;;;5052261;28;20423;-72
2021/12/16 06:35:12;;;;;;;37.07;13.53;;;5.50;93.60;;;;;;5055384;28;20419;-73
2021/12/16 06:37:38;;;;;;;34.13;14.50;;;5.50;93.80;;;;;;5052427;28;20477;-71
2021/12/16 06:40:06;;;;;;;33.10;14.60;;;5.60;93.80;;;;;;5052074;28;20780;-72
2021/12/16 06:42:35;;;;;;;34.30;13.40;;;5.50;93.80;;;;;;5051832;28;20439;-72
2021/12/16 06:45:06;;;;;;;41.57;15.73;;;5.60;94.10;;;;;;5052078;28;20415;-73
2021/12/16 06:53:07;;;;;;;45.50;16.77;;;5.60;94.10;;;;;;5054758;28;20427;-74
2021/12/16 06:55:41;;;;;;;39.27;15.07;;;5.60;93.90;;;;;;5058017;28;20472;-74
2021/12/16 06:58:32;;;;;;;37.40;14.87;;;5.50;94.00;;;;;;5044410;28;20438;-75
2021/12/16 07:01:11;;;;;;;36.13;14.33;;;5.40;94.20;;;;;;5041568;28;20572;-74
2021/12/16 07:03:49;;;;;;;34.90;13.87;;;5.60;94.40;;;;;;5057045;28;20411;-73
2021/12/16 07:06:22;;;;;;;36.17;13.30;;;5.60;94.30;;;;;;5032985;28;20520;-71
2021/12/16 07:08:52;;;;;;;32.80;13.03;;;5.60;94.20;;;;;;5057651;28;21045;-72
2021/12/16 07:11:18;;;;;;;33.77;13.67;;;5.60;94.20;;;;;;5055389;28;20433;-71
2021/12/16 07:13:55;;;;;;;37.93;14.50;;;5.60;94.20;;;;;;5053407;28;20476;-73
2021/12/16 07:16:22;;;;;;;35.23;14.60;;;5.60;94.00;;;;;;5033132;28;20426;-73
2021/12/16 07:18:48;;;;;;;30.70;12.67;;;5.60;93.90;;;;;;5054543;28;20636;-72
2021/12/16 07:21:14;;;;;;;36.60;13.73;;;5.50;93.80;;;;;;5057153;28;20419;-73
2021/12/16 07:23:40;;;;;;;34.57;14.50;;;5.50;93.90;;;;;;5048800;28;20427;-72
2021/12/16 07:26:05;;;;;;;32.50;12.30;;;5.60;94.00;;;;;;5046673;28;20540;-73
2021/12/16 07:28:31;;;;;;;40.17;14.07;;;5.60;94.00;;;;;;5050036;28;20185;-73
2021/12/16 07:30:57;;;;;;;32.73;12.20;;;5.70;93.90;;;;;;5052076;28;20176;-72
2021/12/16 07:33:24;;;;;;;35.13;13.30;;;5.70;93.80;;;;;;5051034;28;20268;-73
2021/12/16 07:35:50;;;;;;;34.93;13.30;;;5.60;93.70;;;;;;5052196;28;20422;-72
2021/12/16 07:38:17;;;;;;;38.57;13.70;;;5.70;93.80;;;;;;5054192;28;20453;-73
2021/12/16 07:40:45;;;;;;;34.07;12.63;;;5.70;93.80;;;;;;5056147;28;20446;-73
2021/12/16 07:43:23;;;;;;;32.53;13.70;;;5.70;93.90;;;;;;5058467;28;20475;-73
2021/12/16 07:45:51;;;;;;;29.07;12.00;;;5.70;93.70;;;;;;5067138;28;20463;-72
2021/12/16 07:48:19;;;;;;;32.93;13.10;;;5.70;93.80;;;;;;5060669;28;20797;-74
2021/12/16 07:50:47;;;;;;;30.50;12.60;;;5.70;93.80;;;;;;5058706;28;20431;-72
2021/12/16 07:53:14;;;;;;;32.23;13.50;;;5.70;93.80;;;;;;5059838;28;20510;-71
2021/12/16 07:55:42;;;;;;;30.70;13.03;;;5.80;93.80;;;;;;5051834;28;20426;-72
2021/12/16 07:58:10;;;;;;;36.90;13.27;;;5.80;93.70;;;;;;5051338;28;20455;-73
2021/12/16 08:00:36;;;;;;;34.63;13.90;;;5.80;93.70;;;;;;5051381;28;20477;-73
2021/12/16 08:03:05;;;;;;;32.97;12.40;;;5.90;93.80;;;;;;5049900;28;20883;-74
2021/12/16 08:05:35;;;;;;;30.97;12.53;;;6.00;93.80;;;;;;5051461;28;20612;-74
2021/12/16 08:08:02;;;;;;;32.20;13.57;;;6.10;93.60;;;;;;5051768;28;20422;-72
2021/12/16 08:10:28;;;;;;;31.40;13.57;;;6.10;93.10;;;;;;5051638;28;20538;-72
2021/12/16 08:12:54;;;;;;;26.90;11.57;;;6.10;92.90;;;;;;5050537;28;20513;-74
2021/12/16 08:15:21;;;;;;;35.40;13.93;;;6.10;92.90;;;;;;5053971;28;20415;-74
2021/12/16 08:17:48;;;;;;;32.70;12.97;;;6.10;92.90;;;;;;5057603;28;20423;-74
2021/12/16 08:20:18;;;;;;;35.43;13.23;;;6.10;92.90;;;;;;5055070;28;20442;-73
2021/12/16 08:22:49;;;;;;;33.90;13.70;;;6.10;93.00;;;;;;5054438;28;20415;-73
2021/12/16 08:25:18;;;;;;;34.83;12.07;;;6.00;92.90;;;;;;5053239;28;20480;-74
2021/12/16 08:27:43;;;;;;;29.10;12.97;;;6.10;93.00;;;;;;5051832;28;20505;-76
2021/12/16 08:30:12;;;;;;;27.00;12.20;;;6.10;93.10;;;;;;5063032;28;20486;-75
2021/12/16 08:32:38;;;;;;;31.47;12.27;;;6.10;92.90;;;;;;5063474;28;20425;-75
2021/12/16 08:35:06;;;;;;;29.03;12.33;;;6.10;93.10;;;;;;5059903;28;20423;-72
2021/12/16 08:37:32;;;;;;;27.30;12.60;;;6.10;93.10;;;;;;5054100;28;20784;-72
2021/12/16 08:39:58;;;;;;;30.43;13.37;;;6.10;93.20;;;;;;5055770;28;20446;-73
2021/12/16 08:42:24;;;;;;;29.83;12.47;;;6.20;93.10;;;;;;5051896;28;20200;-72
2021/12/16 08:44:50;;;;;;;30.23;11.43;;;6.20;93.00;;;;;;5050925;28;20465;-72
2021/12/16 08:47:18;;;;;;;29.03;11.50;;;6.20;92.90;;;;;;5053235;28;20223;-72
2021/12/16 08:49:44;;;;;;;24.67;11.60;;;6.20;92.90;;;;;;5054784;28;20968;-72
2021/12/16 08:52:16;;;;;;;27.97;11.03;;;6.30;92.80;;;;;;5051184;28;20454;-71
2021/12/16 08:54:43;;;;;;;31.63;12.30;;;6.40;92.80;;;;;;5054626;28;20418;-71
2021/12/16 08:57:10;;;;;;;29.13;13.60;;;6.40;92.60;;;;;;5061897;28;20457;-73
2021/12/16 08:59:36;;;;;;;31.20;13.20;;;6.40;92.50;;;;;;5050477;28;20976;-73
2021/12/16 09:02:04;;;;;;;32.57;12.60;;;6.40;92.50;;;;;;5052988;28;20900;-72
2021/12/16 09:04:30;;;;;;;28.63;12.37;;;6.50;92.50;;;;;;5053930;28;20431;-73
2021/12/16 09:07:02;;;;;;;28.13;12.23;;;6.40;92.40;;;;;;5061781;28;20548;-73
2021/12/16 09:09:34;;;;;;;28.47;12.77;;;6.50;92.40;;;;;;5062401;28;20443;-72
2021/12/16 09:12:09;;;;;;;25.60;10.50;;;6.60;92.30;;;;;;5063758;28;20427;-71
2021/12/16 09:14:36;;;;;;;29.57;13.07;;;6.60;92.00;;;;;;5067295;28;20526;-72
2021/12/16 09:17:04;;;;;;;26.10;11.40;;;6.70;91.90;;;;;;5066267;28;20473;-72
2021/12/16 09:19:30;;;;;;;34.40;13.63;;;6.80;91.50;;;;;;5064337;28;20431;-72
2021/12/16 09:21:56;;;;;;;25.37;12.20;;;6.80;91.30;;;;;;5063699;28;20423;-73
2021/12/16 09:24:22;;;;;;;27.23;10.67;;;6.80;91.20;;;;;;5061641;28;20781;-71
2021/12/16 09:26:48;;;;;;;41.30;16.33;;;6.90;91.30;;;;;;5061083;28;20586;-73
2021/12/16 09:29:14;;;;;;;29.43;12.53;;;6.90;91.20;;;;;;5060928;28;20679;-73
2021/12/16 09:31:41;;;;;;;32.20;12.83;;;7.00;91.10;;;;;;5055437;28;20468;-73
2021/12/16 09:34:08;;;;;;;27.07;11.70;;;7.00;91.20;;;;;;5054409;28;20427;-72
2021/12/16 09:36:37;;;;;;;24.50;9.97;;;7.10;91.00;;;;;;5054573;28;20490;-72
2021/12/16 09:39:07;;;;;;;25.63;10.87;;;7.00;90.80;;;;;;5052991;28;20442;-73
2021/12/16 09:41:33;;;;;;;29.57;11.33;;;7.10;90.90;;;;;;5053740;28;20427;-72
2021/12/16 09:43:59;;;;;;;27.97;11.80;;;7.10;90.90;;;;;;5053907;28;20447;-73
2021/12/16 09:46:28;;;;;;;32.63;13.60;;;7.10;90.80;;;;;;5054099;28;20961;-72
2021/12/16 09:48:56;;;;;;;29.00;12.20;;;7.10;90.80;;;;;;5053797;28;20442;-73
2021/12/16 09:51:27;;;;;;;29.63;12.90;;;7.00;90.80;;;;;;5053305;28;20415;-72
2021/12/16 09:54:05;;;;;;;24.47;11.03;;;6.90;91.00;;;;;;5045199;28;20471;-72
2021/12/16 09:56:31;;;;;;;29.07;11.43;;;6.90;91.50;;;;;;5053229;28;20415;-73
2021/12/16 09:59:01;;;;;;;28.60;12.37;;;7.00;91.90;;;;;;5054090;28;20443;-72
2021/12/16 10:01:28;;;;;;;30.80;12.60;;;7.10;92.00;;;;;;5054189;28;20427;-74
2021/12/16 10:04:00;;;;;;;29.10;12.23;;;7.10;91.80;;;;;;5046135;28;20429;-72
2021/12/16 10:06:26;;;;;;;30.17;11.73;;;7.20;91.60;;;;;;5053351;28;20471;-72
2021/12/16 10:08:52;;;;;;;26.40;11.70;;;7.30;91.20;;;;;;5052375;28;20833;-73
2021/12/16 10:11:18;;;;;;;22.00;10.23;;;7.30;91.00;;;;;;5053348;28;20917;-72
2021/12/16 10:13:59;;;;;;;28.90;12.83;;;7.40;91.00;;;;;;5052505;28;20189;-72
2021/12/16 10:19:12;;;;;;;27.37;11.50;;;7.50;90.70;;;;;;5050497;28;20516;-74
2021/12/16 10:21:42;;;;;;;35.87;11.67;;;7.40;90.20;;;;;;5056091;28;20427;-73
2021/12/16 10:24:40;;;;;;;25.03;12.50;;;7.40;90.40;;;;;;5054044;28;21144;-72
2021/12/16 10:27:14;;;;;;;28.87;12.50;;;7.40;90.60;;;;;;5034144;28;20484;-72
2021/12/16 10:29:41;;;;;;;32.40;11.37;;;7.50;90.50;;;;;;5042509;28;20470;-72
2021/12/16 10:32:27;;;;;;;27.07;12.30;;;7.50;90.70;;;;;;5033588;28;20530;-72
2021/12/16 10:35:01;;;;;;;25.40;11.87;;;7.50;91.00;;;;;;5025830;28;20420;-73
2021/12/16 10:37:34;;;;;;;27.10;11.93;;;7.50;91.00;;;;;;5038072;28;20526;-73
2021/12/16 10:40:28;;;;;;;29.27;11.60;;;7.50;91.10;;;;;;5010412;28;20467;-73
2021/12/16 10:42:55;;;;;;;21.53;10.90;;;7.60;91.10;;;;;;5024581;28;21174;-73
2021/12/16 10:45:32;;;;;;;25.83;11.30;;;7.70;91.00;;;;;;5034157;28;20933;-74
2021/12/16 10:48:17;;;;;;;29.30;13.00;;;7.70;90.80;;;;;;5023529;28;20447;-72
2021/12/16 10:51:08;;;;;;;27.97;12.07;;;7.80;90.50;;;;;;5034803;28;21096;-74
2021/12/16 10:54:07;;;;;;;25.83;12.07;;;7.80;90.40;;;;;;4992665;28;20475;-72
2021/12/16 10:56:53;;;;;;;25.20;11.50;;;7.90;89.70;;;;;;5032972;28;21004;-73
2021/12/16 10:59:23;;;;;;;34.67;12.70;;;7.70;89.00;;;;;;5035698;28;20530;-72
2021/12/16 11:01:57;;;;;;;37.33;14.70;;;7.50;89.70;;;;;;5028788;28;20420;-70
2021/12/16 11:04:26;;;;;;;33.87;14.27;;;7.40;90.20;;;;;;5058422;28;20417;-73
2021/12/16 11:06:54;;;;;;;32.93;14.50;;;7.30;90.50;;;;;;5059618;28;20534;-71
2021/12/16 11:09:31;;;;;;;29.53;13.13;;;7.30;90.80;;;;;;5058137;28;20499;-73
2021/12/16 11:12:22;;;;;;;28.23;12.50;;;7.40;90.80;;;;;;5044993;28;20426;-73
2021/12/16 11:14:54;;;;;;;38.17;13.63;;;7.20;90.90;;;;;;5052380;28;20418;-73
2021/12/16 11:17:24;;;;;;;26.43;12.77;;;7.10;91.20;;;;;;5052078;28;20431;-73
2021/12/16 11:20:02;;;;;;;31.40;12.30;;;7.10;91.40;;;;;;5052296;28;20972;-72
2021/12/16 11:22:34;;;;;;;43.93;17.30;;;7.10;91.60;;;;;;5050457;28;20450;-71
2021/12/16 11:25:32;;;;;;;32.43;12.93;;;7.10;91.40;;;;;;5051934;28;20422;-73
2021/12/16 11:28:10;;;;;;;31.20;13.00;;;7.10;91.50;;;;;;5046609;28;20431;-73
2021/12/16 11:30:53;;;;;;;34.63;13.93;;;7.10;91.50;;;;;;5051492;28;20435;-72
2021/12/16 11:33:24;;;;;;;28.83;12.20;;;7.10;91.90;;;;;;5051815;28;20483;-72
2021/12/16 11:36:17;;;;;;;38.83;15.53;;;7.10;91.60;;;;;;5050152;28;20446;-72
2021/12/16 11:38:50;;;;;;;30.33;13.77;;;7.20;91.60;;;;;;5049764;28;20427;-73
2021/12/16 11:41:19;;;;;;;35.30;14.63;;;7.20;91.60;;;;;;5050416;28;20432;-72
2021/12/16 11:43:48;;;;;;;31.10;14.17;;;7.30;91.30;;;;;;5052478;28;20959;-73
2021/12/16 11:46:23;;;;;;;35.77;14.87;;;7.20;91.30;;;;;;5055403;28;20550;-72
2021/12/16 11:48:53;;;;;;;31.13;12.83;;;7.20;91.40;;;;;;5055080;28;20418;-74
2021/12/16 11:51:28;;;;;;;33.80;14.00;;;7.20;91.50;;;;;;5051809;28;20418;-73
2021/12/16 11:54:01;;;;;;;30.87;12.50;;;7.20;91.40;;;;;;5052221;28;20465;-73
2021/12/16 11:56:49;;;;;;;29.93;12.90;;;7.20;91.50;;;;;;5052116;28;20418;-71
2021/12/16 11:59:28;;;;;;;31.60;13.87;;;7.40;91.40;;;;;;5048795;28;20443;-73
2021/12/16 12:01:55;;;;;;;29.47;13.83;;;7.40;90.80;;;;;;5052053;28;20427;-73
2021/12/16 12:04:28;;;;;;;34.10;12.90;;;7.50;90.70;;;;;;5051414;28;20971;-72
2021/12/16 12:06:54;;;;;;;26.00;12.30;;;7.60;90.60;;;;;;5041463;28;20531;-73
2021/12/16 12:09:31;;;;;;;28.20;12.50;;;7.70;90.20;;;;;;5051406;28;20457;-72
2021/12/16 12:11:57;;;;;;;29.17;13.00;;;7.80;89.70;;;;;;5043148;28;20423;-74
2021/12/16 12:14:33;;;;;;;28.97;13.13;;;7.80;89.30;;;;;;5050718;28;20499;-73
2021/12/16 12:17:10;;;;;;;35.43;15.27;;;7.90;88.90;;;;;;5043295;28;20652;-73
2021/12/16 12:19:45;;;;;;;30.13;13.40;;;7.90;89.20;;;;;;5050511;28;21215;-72
2021/12/16 12:22:12;;;;;;;33.90;14.93;;;8.00;88.90;;;;;;5049356;28;20461;-72
2021/12/16 12:24:46;;;;;;;28.93;13.20;;;8.00;88.60;;;;;;5049905;28;20427;-75
2021/12/16 12:27:25;;;;;;;33.37;14.30;;;8.10;88.40;;;;;;5048597;28;20466;-73
2021/12/16 12:29:51;;;;;;;29.90;13.03;;;8.20;88.10;;;;;;5049229;28;20439;-72
2021/12/16 12:32:18;;;;;;;31.03;13.07;;;8.30;88.00;;;;;;5049376;28;20472;-72
2021/12/16 12:34:48;;;;;;;29.17;13.10;;;8.40;87.60;;;;;;5049917;28;20191;-71
2021/12/16 12:37:18;;;;;;;31.80;13.07;;;8.50;87.10;;;;;;5050532;28;20430;-73
2021/12/16 12:39:47;;;;;;;35.03;14.80;;;8.60;86.20;;;;;;5050106;28;21056;-72
2021/12/16 12:42:14;;;;;;;30.30;13.67;;;8.70;85.50;;;;;;5048369;28;20470;-72
2021/12/16 12:44:41;;;;;;;31.73;13.60;;;8.70;85.30;;;;;;5048544;28;20449;-73
2021/12/16 12:47:13;;;;;;;34.03;13.73;;;8.80;85.00;;;;;;5051588;28;20466;-72
2021/12/16 12:49:40;;;;;;;28.93;13.80;;;8.80;84.90;;;;;;5054309;28;20518;-73
2021/12/16 12:52:15;;;;;;;30.13;13.10;;;8.70;84.30;;;;;;5053975;28;21077;-73
2021/12/16 12:54:46;;;;;;;31.07;12.87;;;8.70;84.30;;;;;;5054882;28;20430;-73
2021/12/16 12:57:39;;;;;;;26.70;12.70;;;8.70;84.10;;;;;;5054050;28;20434;-73
2021/12/16 13:00:25;;;;;;;27.43;13.40;;;8.70;84.60;;;;;;5052894;28;20460;-73
2021/12/16 13:03:01;;;;;;;27.30;12.47;;;8.80;84.00;;;;;;5054013;28;20778;-72
2021/12/16 13:05:28;;;;;;;27.73;12.50;;;8.80;83.70;;;;;;5054477;28;20445;-73
2021/12/16 13:08:06;;;;;;;22.20;11.80;;;8.60;83.80;;;;;;5049947;28;20422;-72
2021/12/16 13:10:41;;;;;;;29.60;12.30;;;8.70;84.30;;;;;;5052463;28;20435;-72
2021/12/16 13:16:22;;;;;;;24.53;12.20;;;8.60;84.30;;;;;;5052327;28;20921;-73
2021/12/16 13:27:30;;;;;;;34.27;15.50;;;8.20;85.90;;;;;;5046705;28;20886;-72
2021/12/16 13:32:33;;;;;;;31.67;14.30;;;8.00;87.70;;;;;;5051646;28;20430;-72
2021/12/16 13:35:22;;;;;;;33.07;13.70;;;8.00;88.00;;;;;;5044667;28;20419;-73
2021/12/16 13:37:54;;;;;;;29.97;12.57;;;8.00;88.00;;;;;;5051594;28;20426;-72
2021/12/16 13:40:33;;;;;;;30.70;14.27;;;8.00;88.30;;;;;;5051133;28;20461;-72
2021/12/16 13:43:20;;;;;;;36.23;14.37;;;8.00;88.70;;;;;;5044440;28;20457;-72
2021/12/16 14:05:44;;;;;;;31.40;13.67;;;8.10;88.00;;;;;;5054610;28;20556;-72
2021/12/16 14:08:25;;;;;;;24.37;12.20;;;8.10;88.00;;;;;;5051399;28;20422;-73
2021/12/16 14:10:58;;;;;;;24.90;12.33;;;8.10;87.70;;;;;;5049352;28;20467;-71
2021/12/16 14:25:31;;;;;;;31.07;14.27;;;8.10;88.00;;;;;;5051238;28;20409;-73
2021/12/16 14:42:12;;;;;;;25.40;12.50;;;8.10;86.90;;;;;;5051191;28;20461;-73
2021/12/16 14:49:45;;;;;;;26.93;12.70;;;8.00;87.70;;;;;;5051185;28;20941;-73
2021/12/16 14:52:24;;;;;;;24.17;11.80;;;8.10;88.00;;;;;;5052443;28;20438;-73
2021/12/16 14:54:54;;;;;;;27.17;12.83;;;8.10;87.80;;;;;;5055367;28;20431;-72
2021/12/16 14:57:25;;;;;;;23.30;12.90;;;8.20;87.80;;;;;;5054362;28;20411;-74
2021/12/16 14:59:52;;;;;;;23.47;12.07;;;8.20;87.60;;;;;;5051250;28;20474;-72
2021/12/16 15:02:20;;;;;;;31.73;14.80;;;8.20;87.60;;;;;;5050514;28;21207;-71
2021/12/16 15:04:45;;;;;;;29.53;13.60;;;8.20;88.00;;;;;;5049785;28;20423;-72
2021/12/16 15:07:12;;;;;;;30.17;14.83;;;8.10;88.30;;;;;;5052025;28;20473;-72
2021/12/16 15:09:40;;;;;;;28.80;14.47;;;8.00;88.60;;;;;;5052369;28;20816;-73
2021/12/16 15:38:05;;;;;;;30.37;13.30;;;7.20;91.00;;;;;;5051678;28;20952;-71
2021/12/16 15:45:47;;;;;;;26.27;13.90;;;7.00;91.80;;;;;;5066316;28;20576;-73
2021/12/16 15:48:22;;;;;;;28.83;13.17;;;6.90;92.10;;;;;;5068571;28;20460;-73
2021/12/16 15:51:05;;;;;;;24.20;12.40;;;6.80;92.40;;;;;;5046031;28;20457;-73
2021/12/16 15:53:36;;;;;;;27.37;12.80;;;6.80;92.40;;;;;;5067849;28;20441;-73
2021/12/16 15:56:06;;;;;;;25.10;12.30;;;6.70;92.70;;;;;;5051051;28;20573;-72
2021/12/16 15:58:42;;;;;;;28.33;13.20;;;6.70;92.70;;;;;;5068141;28;20426;-73
2021/12/16 16:01:17;;;;;;;29.60;14.27;;;6.50;92.70;;;;;;5068302;28;20896;-71
2021/12/16 16:03:43;;;;;;;34.13;14.47;;;6.50;92.90;;;;;;5068109;28;20426;-73
2021/12/16 16:06:11;;;;;;;30.17;13.67;;;6.40;93.00;;;;;;5068012;28;20472;-74
2021/12/16 16:08:46;;;;;;;31.23;14.20;;;6.30;93.00;;;;;;5067788;28;20958;-73
2021/12/16 16:11:14;;;;;;;29.20;14.00;;;6.30;93.20;;;;;;5068148;28;20921;-73
2021/12/16 16:13:47;;;;;;;26.43;13.37;;;6.30;93.40;;;;;;5050856;28;20433;-72
2021/12/16 16:16:18;;;;;;;34.27;14.87;;;6.30;93.50;;;;;;5059046;28;20905;-74
2021/12/16 16:18:55;;;;;;;31.37;14.03;;;6.30;93.50;;;;;;5050990;28;20426;-75
2021/12/16 16:21:34;;;;;;;27.63;13.60;;;6.20;93.60;;;;;;5046162;28;20422;-73
2021/12/16 16:24:05;;;;;;;32.00;14.53;;;6.20;93.70;;;;;;5045137;28;20806;-74
2021/12/16 16:26:33;;;;;;;30.50;14.20;;;6.20;93.60;;;;;;5050411;28;20485;-72
2021/12/16 16:29:06;;;;;;;29.83;14.27;;;6.10;93.70;;;;;;5051810;28;20491;-73
2021/12/16 16:31:33;;;;;;;24.30;13.00;;;6.20;93.90;;;;;;5051734;28;20423;-71
2021/12/16 16:34:01;;;;;;;27.80;13.53;;;6.10;93.70;;;;;;5050392;28;20422;-73
2021/12/16 16:36:29;;;;;;;29.30;13.87;;;6.10;93.70;;;;;;5050220;28;20549;-73
2021/12/16 16:39:07;;;;;;;39.53;14.70;;;6.20;93.70;;;;;;5047949;28;20825;-73
2021/12/16 16:41:39;;;;;;;29.33;13.57;;;6.10;93.60;;;;;;5050362;28;20533;-73
2021/12/16 16:44:13;;;;;;;26.00;12.90;;;6.20;93.70;;;;;;5043423;28;20495;-73
2021/12/16 16:46:46;;;;;;;28.93;14.27;;;6.20;93.60;;;;;;5048711;28;21010;-73
2021/12/16 16:49:28;;;;;;;30.97;14.90;;;6.20;93.50;;;;;;5050381;28;20447;-73
2021/12/16 16:51:58;;;;;;;30.23;15.30;;;6.30;93.30;;;;;;5047984;28;20905;-72
2021/12/16 16:54:27;;;;;;;26.37;13.13;;;6.30;93.20;;;;;;5048870;28;20438;-72
2021/12/16 16:57:07;;;;;;;30.03;13.17;;;6.30;93.10;;;;;;5050072;28;20458;-72
2021/12/16 16:59:38;;;;;;;28.83;13.33;;;6.40;92.90;;;;;;5048963;28;20529;-73
2021/12/16 17:02:14;;;;;;;28.97;13.57;;;6.40;92.80;;;;;;5048618;28;20439;-72